Terminal Aerodrome Forecast
Issued by NWS Amarillo, TX

Home | Current Version | Previous Version | Text Only | Print | Product List | Glossary On
Versions: 1 2 3 4 5 6 7 8 9 10 11 12 13 14 15 16
524
FTUS44 KAMA 090520
TAFGUY
TAF
KGUY 090520Z 0906/1006 17010KT P6SM OVC040
     FM091200 18016KT P6SM OVC025
     FM091700 18012KT P6SM SCT030
     FM092300 VRB06KT P6SM SKC=

USA.gov is the U.S. government's official web portal to all federal, state and local government web resources and services.